Union Trader — SVAX6 — position and weather

sailwx.info

Track history (hours):
 
Tides and Currents Weather Stations Pressure Air Temp Water Temp Dewpoint Dewpoint Depression Visibility Wind Speed Wind Dir Waves Ship Positions

Union Trader

Last reported at 2016-Jun-26 21:29 UTC. Time now 2016-Jun-30 10:31 UTC.
Position N 33°19' W 025°14'.

Length 190 m; draft 7 m.

Type: Cargo ship. MMSI: 240982000.

Date/timePositionNaut miles runAvg speedWind from/ knotsBaromVisibWave heightAir tempDewpointWater temp
2016-Jun-26 21:29N 33°19' W 025°14'  
2016-Jun-24 02:19N 35°42' W 008°01'2312.9
2016-Jun-24 00:32N 35°46' W 007°33'1312.8
2016-Jun-23 23:33N 35°48' W 007°17'1312.7
2016-Jun-23 22:33N 35°51' W 007°02'1812.7
2016-Jun-23 21:07N 35°54' W 006°40'712.7
2016-Jun-23 20:33N 35°55' W 006°31'1211.8
2016-Jun-23 19:33N 35°57' W 006°17'1111.1
2016-Jun-23 18:33N 35°58' W 006°03'1110.9
2016-Jun-23 17:33N 35°57' W 005°50'1210.5
2016-Jun-23 16:27N 35°57' W 005°35'1010.9
2016-Jun-23 15:33N 36°02' W 005°25'9 8.4
2016-Jun-23 14:31N 36°10' W 005°24'0 0.0
2016-Jun-23 13:31N 36°10' W 005°24'0 0.0
2016-Jun-23 12:31N 36°10' W 005°24'0 0.0
2016-Jun-23 11:31N 36°10' W 005°24'0 0.0
2016-Jun-23 10:28N 36°10' W 005°24'0 0.0
2016-Jun-23 09:04N 36°10' W 005°24'0 0.0
2016-Jun-23 08:22N 36°10' W 005°24'0 0.0
2016-Jun-23 07:19N 36°10' W 005°24'0 0.0
2016-Jun-23 05:31N 36°10' W 005°24'0 0.0
2016-Jun-23 04:31N 36°10' W 005°24'0 0.0
2016-Jun-23 03:31N 36°10' W 005°24'0 0.1
2016-Jun-23 02:31N 36°10' W 005°24'0 0.0
2016-Jun-23 01:31N 36°10' W 005°24'0 0.1
2016-Jun-23 00:28N 36°10' W 005°24'0 0.0
2016-Jun-22 23:28N 36°10' W 005°24'0 0.1
2016-Jun-22 22:31N 36°10' W 005°24'0 0.1
2016-Jun-22 21:28N 36°10' W 005°24'0 0.0
2016-Jun-22 20:28N 36°10' W 005°24'0 0.1
2016-Jun-22 19:31N 36°10' W 005°24'0 0.0
2016-Jun-22 18:13N 36°10' W 005°24'0 0.0
2016-Jun-22 17:31N 36°10' W 005°24'0 0.0
2016-Jun-22 16:31N 36°10' W 005°24'0 0.0
2016-Jun-22 15:31N 36°10' W 005°24'0 0.0
2016-Jun-22 14:13N 36°10' W 005°24'0 0.1
2016-Jun-22 13:31N 36°10' W 005°24'0 0.1
2016-Jun-22 12:31N 36°10' W 005°24'0 0.0
2016-Jun-22 11:28N 36°10' W 005°24'0 0.0
2016-Jun-22 10:25N 36°10' W 005°24'0 0.0
2016-Jun-22 09:31N 36°10' W 005°24'0 0.0
2016-Jun-22 08:31N 36°10' W 005°24'0 0.0
2016-Jun-22 07:31N 36°10' W 005°24'0 0.0
2016-Jun-22 06:31N 36°10' W 005°24'0 0.0
2016-Jun-22 05:31N 36°10' W 005°24'0 0.0
2016-Jun-22 04:28N 36°10' W 005°24'0 0.0
2016-Jun-22 03:28N 36°10' W 005°24'0 0.0
2016-Jun-22 02:31N 36°10' W 005°24'0 0.0
2016-Jun-22 00:31N 36°10' W 005°24'0 0.0
2016-Jun-21 23:25N 36°10' W 005°24'0 0.0
2016-Jun-21 22:31N 36°10' W 005°24'0 0.1
2016-Jun-21 21:31N 36°10' W 005°24'0 0.0
2016-Jun-21 20:31N 36°10' W 005°24'0 0.0
2016-Jun-21 19:25N 36°10' W 005°24'0 0.0
2016-Jun-21 18:31N 36°10' W 005°24'0 0.0
2016-Jun-21 17:28N 36°10' W 005°24'0 0.0
2016-Jun-21 16:31N 36°10' W 005°24'0 0.0
2016-Jun-21 15:31N 36°10' W 005°24'0 0.0
2016-Jun-21 14:31N 36°10' W 005°24'0 0.0
2016-Jun-21 13:28N 36°10' W 005°24'0 0.0
2016-Jun-21 12:28N 36°10' W 005°24'0 0.0
2016-Jun-21 11:22N 36°10' W 005°24'0 0.0
2016-Jun-21 10:28N 36°10' W 005°24'0 0.0
2016-Jun-21 09:31N 36°10' W 005°24'0 0.0
2016-Jun-21 08:31N 36°10' W 005°24'4 4.1
2016-Jun-21 07:33N 36°07' W 005°23'4 3.5
2016-Jun-21 06:31N 36°05' W 005°19'3 1.7
2016-Jun-21 04:33N 36°06' W 005°15'10511.2
2016-Jun-20 19:14N 36°23' W 003°07'812.4
2016-Jun-20 18:33N 36°25' W 002°57'2 1.6
2016-Jun-20 17:30N 36°25' W 002°55'1 0.6
2016-Jun-20 16:31N 36°24' W 002°55'1 0.6
2016-Jun-20 15:30N 36°24' W 002°54'1 0.7
2016-Jun-20 14:30N 36°23' W 002°54'1 0.6
2016-Jun-20 13:34N 36°23' W 002°53'7 3.5
2016-Jun-20 11:27N 36°22' W 002°44'1112.2
2016-Jun-20 10:34N 36°24' W 002°31'1212.0
2016-Jun-20 09:33N 36°25' W 002°16'1211.9
2016-Jun-20 08:33N 36°27' W 002°01'2411.7
2016-Jun-20 06:32N 36°32' W 001°33'1111.5
2016-Jun-20 05:33N 36°34' W 001°19'2211.0
2016-Jun-20 03:32N 36°39' W 000°52'1111.2
2016-Jun-20 02:33N 36°41' W 000°38'1111.1
2016-Jun-20 01:32N 36°43' W 000°25'1111.2
2016-Jun-20 00:33N 36°45' W 000°11'1211.8
2016-Jun-19 23:33N 36°47' E 000°03'  
Track history (hours):
 
Tides and Currents Weather Stations Pressure Air Temp Water Temp Dewpoint Dewpoint Depression Visibility Wind Speed Wind Dir Waves Ship Positions

Union Trader

Last reported at 2016-Jun-26 21:29 UTC. Time now 2016-Jun-30 10:31 UTC.
Position N 33°19' W 025°14'.

Length 190 m; draft 7 m.

Type: Cargo ship. MMSI: 240982000.

Date/timePositionNaut miles runAvg speedWind from/ knotsBaromVisibWave heightAir tempDewpointWater temp
2016-Jun-26 21:29N 33°19' W 025°14'  
2016-Jun-24 02:19N 35°42' W 008°01'2312.9
2016-Jun-24 00:32N 35°46' W 007°33'1312.8
2016-Jun-23 23:33N 35°48' W 007°17'1312.7
2016-Jun-23 22:33N 35°51' W 007°02'1812.7
2016-Jun-23 21:07N 35°54' W 006°40'712.7
2016-Jun-23 20:33N 35°55' W 006°31'1211.8
2016-Jun-23 19:33N 35°57' W 006°17'1111.1
2016-Jun-23 18:33N 35°58' W 006°03'1110.9
2016-Jun-23 17:33N 35°57' W 005°50'1210.5
2016-Jun-23 16:27N 35°57' W 005°35'1010.9
2016-Jun-23 15:33N 36°02' W 005°25'9 8.4
2016-Jun-23 14:31N 36°10' W 005°24'0 0.0
2016-Jun-23 13:31N 36°10' W 005°24'0 0.0
2016-Jun-23 12:31N 36°10' W 005°24'0 0.0
2016-Jun-23 11:31N 36°10' W 005°24'0 0.0
2016-Jun-23 10:28N 36°10' W 005°24'0 0.0
2016-Jun-23 09:04N 36°10' W 005°24'0 0.0
2016-Jun-23 08:22N 36°10' W 005°24'0 0.0
2016-Jun-23 07:19N 36°10' W 005°24'0 0.0
2016-Jun-23 05:31N 36°10' W 005°24'0 0.0
2016-Jun-23 04:31N 36°10' W 005°24'0 0.0
2016-Jun-23 03:31N 36°10' W 005°24'0 0.1
2016-Jun-23 02:31N 36°10' W 005°24'0 0.0
2016-Jun-23 01:31N 36°10' W 005°24'0 0.1
2016-Jun-23 00:28N 36°10' W 005°24'0 0.0
2016-Jun-22 23:28N 36°10' W 005°24'0 0.1
2016-Jun-22 22:31N 36°10' W 005°24'0 0.1
2016-Jun-22 21:28N 36°10' W 005°24'0 0.0
2016-Jun-22 20:28N 36°10' W 005°24'0 0.1
2016-Jun-22 19:31N 36°10' W 005°24'0 0.0
2016-Jun-22 18:13N 36°10' W 005°24'0 0.0
2016-Jun-22 17:31N 36°10' W 005°24'0 0.0
2016-Jun-22 16:31N 36°10' W 005°24'0 0.0
2016-Jun-22 15:31N 36°10' W 005°24'0 0.0
2016-Jun-22 14:13N 36°10' W 005°24'0 0.1
2016-Jun-22 13:31N 36°10' W 005°24'0 0.1
2016-Jun-22 12:31N 36°10' W 005°24'0 0.0
2016-Jun-22 11:28N 36°10' W 005°24'0 0.0
2016-Jun-22 10:25N 36°10' W 005°24'0 0.0
2016-Jun-22 09:31N 36°10' W 005°24'0 0.0
2016-Jun-22 08:31N 36°10' W 005°24'0 0.0
2016-Jun-22 07:31N 36°10' W 005°24'0 0.0
2016-Jun-22 06:31N 36°10' W 005°24'0 0.0
2016-Jun-22 05:31N 36°10' W 005°24'0 0.0
2016-Jun-22 04:28N 36°10' W 005°24'0 0.0
2016-Jun-22 03:28N 36°10' W 005°24'0 0.0
2016-Jun-22 02:31N 36°10' W 005°24'0 0.0
2016-Jun-22 00:31N 36°10' W 005°24'0 0.0
2016-Jun-21 23:25N 36°10' W 005°24'0 0.0
2016-Jun-21 22:31N 36°10' W 005°24'0 0.1
2016-Jun-21 21:31N 36°10' W 005°24'0 0.0
2016-Jun-21 20:31N 36°10' W 005°24'0 0.0
2016-Jun-21 19:25N 36°10' W 005°24'0 0.0
2016-Jun-21 18:31N 36°10' W 005°24'0 0.0
2016-Jun-21 17:28N 36°10' W 005°24'0 0.0
2016-Jun-21 16:31N 36°10' W 005°24'0 0.0
2016-Jun-21 15:31N 36°10' W 005°24'0 0.0
2016-Jun-21 14:31N 36°10' W 005°24'0 0.0
2016-Jun-21 13:28N 36°10' W 005°24'0 0.0
2016-Jun-21 12:28N 36°10' W 005°24'0 0.0
2016-Jun-21 11:22N 36°10' W 005°24'0 0.0
2016-Jun-21 10:28N 36°10' W 005°24'0 0.0
2016-Jun-21 09:31N 36°10' W 005°24'0 0.0
2016-Jun-21 08:31N 36°10' W 005°24'4 4.1
2016-Jun-21 07:33N 36°07' W 005°23'4 3.5
2016-Jun-21 06:31N 36°05' W 005°19'3 1.7
2016-Jun-21 04:33N 36°06' W 005°15'10511.2
2016-Jun-20 19:14N 36°23' W 003°07'812.4
2016-Jun-20 18:33N 36°25' W 002°57'2 1.6
2016-Jun-20 17:30N 36°25' W 002°55'1 0.6
2016-Jun-20 16:31N 36°24' W 002°55'1 0.6
2016-Jun-20 15:30N 36°24' W 002°54'1 0.7
2016-Jun-20 14:30N 36°23' W 002°54'1 0.6
2016-Jun-20 13:34N 36°23' W 002°53'7 3.5
2016-Jun-20 11:27N 36°22' W 002°44'1112.2
2016-Jun-20 10:34N 36°24' W 002°31'1212.0
2016-Jun-20 09:33N 36°25' W 002°16'1211.9
2016-Jun-20 08:33N 36°27' W 002°01'2411.7
2016-Jun-20 06:32N 36°32' W 001°33'1111.5
2016-Jun-20 05:33N 36°34' W 001°19'2211.0
2016-Jun-20 03:32N 36°39' W 000°52'1111.2
2016-Jun-20 02:33N 36°41' W 000°38'1111.1
2016-Jun-20 01:32N 36°43' W 000°25'1111.2
2016-Jun-20 00:33N 36°45' W 000°11'1211.8
2016-Jun-19 23:33N 36°47' E 000°03'  

Dump ship's entire track history